This is the latest recevied weather packets stored in our database for station/object KI5RAB. If no packets are shown the sender has not sent any weather packets the latest 1 day(s).
| Time | Temp. | Humidity | Pressure | Rain* | Wind** | Luminosity | Snow |
|---|---|---|---|---|---|---|---|
| 1778005255 | 27.22° C | 76% | 1012 hPa | 0 mm | 0.89 m/s, 190° | 211 W/m² | - |
| 1778004952 | 27.22° C | 76% | 1012 hPa | 0 mm | 0.45 m/s, 297° | 232 W/m² | - |
| 1778004649 | 26.67° C | 77% | 1011.8 hPa | 0 mm | 1.34 m/s, 218° | 377 W/m² | - |
| 1778004345 | 26.67° C | 78% | 1012 hPa | 0 mm | 0.89 m/s, 291° | 313 W/m² | - |
| 1778004043 | 26.67° C | 78% | 1011.9 hPa | 0 mm | 0 m/s | 243 W/m² | - |
| 1778003738 | 26.67° C | 77% | 1012 hPa | 0 mm | 0.45 m/s, 269° | 280 W/m² | - |
| 1778003435 | 26.67° C | 78% | 1011.9 hPa | 0 mm | 0.45 m/s, 321° | 333 W/m² | - |
| 1778003132 | 26.67° C | 79% | 1012.1 hPa | 0 mm | 0.45 m/s, 312° | 241 W/m² | - |
| 1778002828 | 25.56° C | 80% | 1012 hPa | 0 mm | 0.45 m/s, 258° | 286 W/m² | - |
| 1778002525 | 26.11° C | 79% | 1012.1 hPa | 0 mm | 0.89 m/s, 303° | 280 W/m² | - |
| 1778002222 | 25.56° C | 80% | 1012.1 hPa | 0 mm | 0 m/s | 332 W/m² | - |
| 1778001920 | 25.56° C | 82% | 1012.1 hPa | 0 mm | 0.45 m/s, 302° | 261 W/m² | - |
| 1778001615 | 25.56° C | 80% | 1012.1 hPa | 0 mm | 0.45 m/s, 327° | 260 W/m² | - |
| 1778001311 | 25.56° C | 82% | 1012.2 hPa | 0 mm | 0 m/s | 242 W/m² | - |
| 1778001008 | 25.56° C | 82% | 1012.1 hPa | 0 mm | 0.89 m/s, 249° | 246 W/m² | - |
| 1778000705 | 25° C | 83% | 1012 hPa | 0 mm | 0.45 m/s, 171° | 246 W/m² | - |
| 1778000400 | 25° C | 84% | 1012.2 hPa | 0 mm | 0.45 m/s, 319° | 204 W/m² | - |
| 1778000096 | 25° C | 83% | 1012.1 hPa | 0 mm | 0.89 m/s, 192° | 218 W/m² | - |
| 1777999792 | 25° C | 84% | 1012.1 hPa | 0 mm | 0.89 m/s, 312° | 204 W/m² | - |
| 1777999488 | 25° C | 84% | 1012.1 hPa | 0 mm | 0.45 m/s, 295° | 201 W/m² | - |
| 1777999186 | 24.44° C | 85% | 1012.1 hPa | 0 mm | 0.45 m/s, 312° | 205 W/m² | - |
| 1777998884 | 24.44° C | 84% | 1012.2 hPa | 0 mm | 0 m/s | 263 W/m² | - |
| 1777998583 | 24.44° C | 85% | 1012.2 hPa | 0 mm | 0.45 m/s, 24° | 224 W/m² | - |
| 1777998279 | 23.89° C | 86% | 1012.2 hPa | 0 mm | 0 m/s | 212 W/m² | - |
| 1777997976 | 23.89° C | 87% | 1012.2 hPa | 0 mm | 1.34 m/s, 226° | 197 W/m² | - |
* Rain latest hour (hover to see other rain measurements)
** Current wind speed in m/s (hover to see current wind gust speed)